Time;durP1;ratioP1;P1;durP2;ratioP2;P2;SDS_P1;SDS_P2;PMS_P1;PMS_P2;Temp;Humidity;BMP_temperature;BMP_pressure;BME280_temperature;BME280_humidity;BME280_pressure;Samples;Min_cycle;Max_cycle;Signal;HPM_P1;HPM_P2
2023/08/10 00:00:54;;;;;;;0.30;0.30;;;;;;;13.50;93.30;99901.09;5067976;28;20354;-61
2023/08/10 00:03:19;;;;;;;0.20;0.20;;;;;;;13.48;93.03;99905.53;5067312;28;20021;-61
2023/08/10 00:05:44;;;;;;;0.20;0.20;;;;;;;13.50;92.96;99898.50;5067533;28;20485;-60
2023/08/10 00:08:10;;;;;;;0.20;0.20;;;;;;;13.49;93.65;99891.56;5066713;28;20145;-60
2023/08/10 00:10:37;;;;;;;0.20;0.20;;;;;;;13.46;92.78;99904.72;5067981;28;20416;-61
2023/08/10 00:13:03;;;;;;;0.25;0.25;;;;;;;13.46;93.20;99904.72;5067552;28;20032;-61
2023/08/10 00:15:29;;;;;;;0.30;0.30;;;;;;;13.45;93.85;99897.78;5066436;28;20072;-61
2023/08/10 00:17:55;;;;;;;0.20;0.20;;;;;;;13.45;93.73;99903.00;5067590;28;20025;-61
2023/08/10 00:20:20;;;;;;;0.20;0.20;;;;;;;13.45;93.51;99889.97;5067571;28;20025;-61
2023/08/10 00:22:46;;;;;;;0.30;0.30;;;;;;;13.47;93.34;99912.50;5067233;28;20040;-61
2023/08/10 00:25:12;;;;;;;0.20;0.20;;;;;;;13.53;93.86;99911.47;5067514;28;20021;-61
2023/08/10 00:27:38;;;;;;;0.20;0.20;;;;;;;13.51;93.54;99921.13;5067063;28;20032;-61
2023/08/10 00:30:05;;;;;;;0.30;0.30;;;;;;;13.58;94.14;99922.63;5066929;28;20017;-62
2023/08/10 00:32:30;;;;;;;0.20;0.20;;;;;;;13.57;94.13;99915.72;5066849;28;20036;-61
2023/08/10 00:34:56;;;;;;;0.20;0.20;;;;;;;13.59;93.56;99919.16;5066108;28;20017;-61
2023/08/10 00:37:21;;;;;;;0.20;0.20;;;;;;;13.57;93.85;99922.69;5066743;28;20098;-61
2023/08/10 00:39:46;;;;;;;0.25;0.25;;;;;;;13.59;93.74;99928.72;5066550;28;20107;-61
2023/08/10 00:42:12;;;;;;;0.30;0.30;;;;;;;13.56;94.00;99929.63;5067134;28;20035;-61
2023/08/10 00:44:39;;;;;;;0.20;0.20;;;;;;;13.61;94.01;99938.19;5067086;28;20029;-61
2023/08/10 00:47:05;;;;;;;0.30;0.30;;;;;;;13.54;92.92;99921.03;5067252;28;20040;-61
2023/08/10 00:49:31;;;;;;;0.20;0.20;;;;;;;13.59;92.13;99929.59;5067156;28;20032;-60
2023/08/10 00:51:57;;;;;;;0.20;0.20;;;;;;;13.59;91.22;99932.19;5066834;28;20118;-61
2023/08/10 00:54:22;;;;;;;0.30;0.30;;;;;;;13.67;91.78;99939.78;5066903;28;20021;-61
2023/08/10 00:56:50;;;;;;;0.30;0.30;;;;;;;13.65;92.00;99931.16;5066728;28;20028;-61
2023/08/10 00:59:16;;;;;;;0.20;0.20;;;;;;;13.69;92.22;99935.38;5067119;28;20035;-61
2023/08/10 01:01:41;;;;;;;0.30;0.30;;;;;;;13.68;91.83;99935.41;5066678;28;20024;-61
2023/08/10 01:04:07;;;;;;;1.92;1.83;;;;;;;13.61;92.07;99940.81;5066606;28;20052;-61
2023/08/10 01:06:38;;;;;;;0.28;0.28;;;;;;;13.62;91.23;99941.66;5066435;28;20025;-61
2023/08/10 01:09:10;;;;;;;0.30;0.30;;;;;;;13.59;90.78;99937.41;5067048;28;20027;-61
2023/08/10 01:11:54;;;;;;;;;;;;;;;13.67;91.25;99949.34;5066897;28;20025;-61
2023/08/10 01:14:30;;;;;;;0.30;0.30;;;;;;;13.54;92.01;99936.69;5066775;28;19931;-62
2023/08/10 01:16:57;;;;;;;0.30;0.30;;;;;;;13.57;92.28;99951.38;5066610;28;20029;-61
2023/08/10 01:19:32;;;;;;;0.28;0.28;;;;;;;13.56;91.94;99950.50;5065283;28;20021;-61
2023/08/10 01:22:16;;;;;;;0.25;0.25;;;;;;;13.50;91.19;99953.25;5066152;28;20083;-60
2023/08/10 01:24:43;;;;;;;0.28;0.28;;;;;;;13.55;91.25;99961.84;5066622;28;20029;-62
2023/08/10 01:27:13;;;;;;;0.60;0.60;;;;;;;13.59;92.13;99952.19;5066300;28;20029;-60
2023/08/10 01:29:40;;;;;;;0.30;0.30;;;;;;;13.61;91.89;99961.66;5066375;28;20029;-62
2023/08/10 01:32:13;;;;;;;0.20;0.20;;;;;;;13.62;92.33;99965.16;5066103;28;20024;-61
2023/08/10 01:34:39;;;;;;;0.30;0.30;;;;;;;13.65;92.36;99961.59;5065836;28;20031;-62
2023/08/10 01:37:04;;;;;;;0.30;0.30;;;;;;;13.65;92.83;99958.97;5065890;28;20065;-61
2023/08/10 01:39:32;;;;;;;0.30;0.30;;;;;;;13.64;92.77;99963.34;5065748;28;20053;-60
2023/08/10 01:41:57;;;;;;;0.30;0.30;;;;;;;13.65;92.55;99974.63;5065521;28;20115;-60
2023/08/10 01:44:24;;;;;;;0.20;0.20;;;;;;;13.60;92.96;99956.50;5065668;28;20044;-61
2023/08/10 01:46:54;;;;;;;0.30;0.30;;;;;;;13.62;92.54;99975.56;5065975;28;20025;-61
2023/08/10 01:49:22;;;;;;;0.30;0.30;;;;;;;13.59;93.07;99970.44;5066069;28;20044;-61
2023/08/10 01:51:49;;;;;;;0.20;0.20;;;;;;;13.60;93.49;99972.16;5064348;28;20166;-61
2023/08/10 01:54:16;;;;;;;0.30;0.30;;;;;;;13.60;93.60;99978.22;5065806;28;20021;-60
2023/08/10 01:56:42;;;;;;;0.30;0.30;;;;;;;13.58;93.82;99968.72;5065843;28;20057;-60
2023/08/10 01:59:08;;;;;;;0.30;0.30;;;;;;;13.59;nan;99973.91;5065742;28;20036;-61
2023/08/10 02:01:33;;;;;;;0.22;0.22;;;;;;;13.51;93.93;99979.31;5063992;28;20074;-61
2023/08/10 02:03:59;;;;;;;0.20;0.20;;;;;;;13.49;93.52;99980.25;5065676;28;20036;-60
2023/08/10 02:06:24;;;;;;;0.22;0.22;;;;;;;13.46;93.88;99981.19;5065457;28;20028;-61
2023/08/10 02:08:49;;;;;;;0.30;0.30;;;;;;;13.42;92.49;99981.31;5065544;28;20084;-61
2023/08/10 02:11:15;;;;;;;0.20;0.20;;;;;;;13.42;92.61;99981.31;5065382;28;20048;-60
2023/08/10 02:13:40;;;;;;;0.30;0.30;;;;;;;13.37;92.31;99987.50;5065525;28;20021;-60
2023/08/10 02:16:06;;;;;;;0.20;0.20;;;;;;;13.38;92.75;99981.41;5064677;28;20076;-60
2023/08/10 02:18:31;;;;;;;0.20;0.20;;;;;;;13.33;92.89;99996.31;5065227;28;20028;-61
2023/08/10 02:20:56;;;;;;;0.20;0.20;;;;;;;13.25;91.70;100000.84;5064829;28;20017;-61
2023/08/10 02:23:22;;;;;;;0.20;0.20;;;;;;;13.15;91.61;99992.41;5065003;28;20032;-60
2023/08/10 02:25:47;;;;;;;0.20;0.20;;;;;;;13.10;91.50;99989.94;5064168;28;20088;-61
2023/08/10 02:28:13;;;;;;;0.20;0.20;;;;;;;13.10;91.57;99994.31;5065199;28;20495;-61
2023/08/10 02:30:38;;;;;;;0.30;0.30;;;;;;;13.01;92.10;99995.38;5065196;28;20021;-60
2023/08/10 02:33:05;;;;;;;0.20;0.20;;;;;;;12.96;92.66;100002.44;5065112;28;20070;-62
2023/08/10 02:35:30;;;;;;;0.20;0.20;;;;;;;12.92;92.81;99991.28;5064808;28;20032;-61
2023/08/10 02:37:56;;;;;;;0.30;0.30;;;;;;;12.87;93.16;100004.41;5065043;28;20049;-61
2023/08/10 02:40:21;;;;;;;0.20;0.20;;;;;;;12.84;93.24;100001.03;5064886;28;20032;-61
2023/08/10 02:42:47;;;;;;;0.30;0.30;;;;;;;12.84;93.50;100001.84;5064500;28;20175;-61
2023/08/10 02:45:13;;;;;;;0.30;0.30;;;;;;;12.83;93.90;99997.53;5065020;28;20047;-61
2023/08/10 02:47:38;;;;;;;0.30;0.30;;;;;;;12.79;93.50;100003.75;5065014;28;20056;-61
2023/08/10 02:50:07;;;;;;;0.20;0.20;;;;;;;12.76;93.86;100001.22;5064725;28;20052;-61
2023/08/10 02:52:34;;;;;;;0.88;0.88;;;;;;;12.74;93.89;100005.59;5064688;28;20025;-61
2023/08/10 02:54:59;;;;;;;0.25;0.25;;;;;;;12.68;94.26;99998.78;5065036;28;20079;-61
2023/08/10 02:57:24;;;;;;;0.20;0.20;;;;;;;12.71;94.25;100000.44;5064754;28;20025;-61
2023/08/10 02:59:50;;;;;;;0.30;0.30;;;;;;;12.61;94.40;99997.22;5064842;28;20032;-62
2023/08/10 03:02:19;;;;;;;0.30;0.30;;;;;;;12.64;94.68;100008.41;5066005;28;20040;-61
2023/08/10 03:04:44;;;;;;;0.30;0.30;;;;;;;12.66;94.65;100007.50;5069166;28;20089;-61
2023/08/10 03:07:10;;;;;;;0.20;0.20;;;;;;;12.69;95.18;100005.69;5068871;28;20033;-62
2023/08/10 03:09:37;;;;;;;0.35;0.35;;;;;;;12.72;95.09;100010.84;5068543;28;20037;-61
2023/08/10 03:12:03;;;;;;;0.30;0.30;;;;;;;12.73;95.01;100006.50;5068646;28;20089;-62
2023/08/10 03:14:28;;;;;;;0.30;0.30;;;;;;;12.75;95.44;99997.75;5069021;28;20025;-61
2023/08/10 03:16:53;;;;;;;0.30;0.30;;;;;;;12.80;95.30;100008.03;5068788;28;20032;-61
2023/08/10 03:19:19;;;;;;;0.22;0.22;;;;;;;12.78;95.43;100007.22;5068620;28;20047;-61
2023/08/10 03:21:45;;;;;;;0.30;0.30;;;;;;;12.85;95.06;100014.00;5068654;28;20025;-61
2023/08/10 03:24:11;;;;;;;0.30;0.30;;;;;;;12.89;95.41;100006.97;5068797;28;20052;-61
2023/08/10 03:26:36;;;;;;;0.30;0.30;;;;;;;12.93;95.48;100008.59;5068574;28;20053;-61
2023/08/10 03:29:01;;;;;;;0.20;0.20;;;;;;;12.95;95.36;100016.38;5068518;28;20020;-59
2023/08/10 03:31:29;;;;;;;0.30;0.30;;;;;;;12.88;94.99;100000.03;5068420;28;20120;-62
2023/08/10 03:33:55;;;;;;;0.30;0.30;;;;;;;12.96;95.00;100018.94;5068363;28;20017;-61
2023/08/10 03:36:20;;;;;;;0.65;0.65;;;;;;;12.98;93.88;100021.50;5068133;28;20104;-61
2023/08/10 03:38:46;;;;;;;0.30;0.30;;;;;;;13.04;94.22;100020.50;5067172;28;20052;-60
2023/08/10 03:41:11;;;;;;;0.30;0.30;;;;;;;13.11;93.69;100022.94;5068406;28;20041;-61
2023/08/10 03:43:36;;;;;;;0.20;0.20;;;;;;;13.09;93.52;100022.13;5068313;28;20047;-60
2023/08/10 03:46:02;;;;;;;0.30;0.30;;;;;;;13.12;93.59;100024.63;5068390;28;20040;-60
2023/08/10 03:48:28;;;;;;;0.30;0.30;;;;;;;13.16;94.30;100028.03;5068340;28;20029;-61
2023/08/10 03:50:53;;;;;;;0.30;0.30;;;;;;;13.22;94.26;100027.00;5067957;28;20025;-61
2023/08/10 03:53:18;;;;;;;0.30;0.30;;;;;;;13.23;94.42;100020.88;5068096;28;20017;-60
2023/08/10 03:55:44;;;;;;;0.30;0.30;;;;;;;13.26;94.77;100029.50;5067990;28;20029;-62
2023/08/10 03:58:09;;;;;;;0.30;0.30;;;;;;;13.25;93.66;100033.00;5068142;28;20036;-61
2023/08/10 04:00:35;;;;;;;0.30;0.30;;;;;;;13.25;93.75;100029.53;5067596;28;20507;-61
2023/08/10 04:03:00;;;;;;;0.20;0.20;;;;;;;13.26;94.20;100037.31;5067629;28;20125;-61
2023/08/10 04:05:27;;;;;;;0.20;0.20;;;;;;;13.27;93.61;100033.81;5067702;28;20032;-62
2023/08/10 04:07:52;;;;;;;0.30;0.30;;;;;;;13.27;93.48;100032.97;5067706;28;20028;-62
2023/08/10 04:10:18;;;;;;;0.20;0.20;;;;;;;13.25;93.22;100039.97;5067585;28;20025;-61
2023/08/10 04:12:43;;;;;;;0.25;0.25;;;;;;;13.14;92.02;100029.81;5067715;28;20017;-61
2023/08/10 04:15:08;;;;;;;0.30;0.30;;;;;;;13.17;92.85;100045.38;5066784;28;20482;-61
2023/08/10 04:17:35;;;;;;;0.25;0.25;;;;;;;13.12;92.50;100037.66;5067911;28;20020;-62
2023/08/10 04:20:01;;;;;;;0.20;0.20;;;;;;;13.02;92.63;100030.97;5067851;28;20029;-61
2023/08/10 04:22:26;;;;;;;0.20;0.20;;;;;;;13.02;92.01;100047.47;5067445;28;20051;-61
2023/08/10 04:24:52;;;;;;;0.30;0.30;;;;;;;12.97;91.27;100045.88;5067795;28;20470;-60
2023/08/10 04:27:18;;;;;;;0.30;0.30;;;;;;;13.05;91.81;100059.53;5067663;28;20083;-60
2023/08/10 04:29:44;;;;;;;0.20;0.20;;;;;;;13.05;92.58;100056.94;5067764;28;20016;-60
2023/08/10 04:32:10;;;;;;;0.30;0.30;;;;;;;13.08;92.75;100054.25;5067195;28;20052;-60
2023/08/10 04:34:36;;;;;;;0.30;0.30;;;;;;;13.02;92.51;100051.81;5067426;28;20028;-60
2023/08/10 04:37:02;;;;;;;0.20;0.20;;;;;;;13.01;91.45;100052.72;5067332;28;20025;-61
2023/08/10 04:39:27;;;;;;;0.20;0.20;;;;;;;13.04;91.43;100057.84;5067528;28;20079;-61
2023/08/10 04:41:53;;;;;;;0.30;0.30;;;;;;;13.03;91.39;100056.16;5067369;28;20021;-60
2023/08/10 04:44:18;;;;;;;0.20;0.20;;;;;;;13.00;91.53;100048.41;5067210;28;20108;-60
2023/08/10 04:46:44;;;;;;;0.30;0.30;;;;;;;12.98;91.66;100048.44;5067227;28;20025;-61
2023/08/10 04:49:10;;;;;;;0.28;0.28;;;;;;;13.00;91.61;100059.66;5067257;28;20021;-60
2023/08/10 04:51:36;;;;;;;0.30;0.30;;;;;;;12.95;90.76;100058.06;5067114;28;20017;-60
2023/08/10 04:54:01;;;;;;;0.40;0.40;;;;;;;13.09;90.88;100075.97;5067262;28;20020;-61
2023/08/10 04:56:27;;;;;;;0.30;0.30;;;;;;;13.44;91.72;100073.38;5067104;28;20155;-61
2023/08/10 04:58:52;;;;;;;0.30;0.30;;;;;;;13.82;92.39;100066.31;5067173;28;20051;-61
2023/08/10 05:01:18;;;;;;;0.35;0.35;;;;;;;14.39;95.75;100076.06;5066949;28;20021;-61
2023/08/10 05:03:43;;;;;;;0.22;0.22;;;;;;;15.09;96.90;100070.44;5066338;28;20029;-62
2023/08/10 05:06:09;;;;;;;0.20;0.20;;;;;;;15.96;99.24;100064.84;5065594;28;20441;-62
2023/08/10 05:08:34;;;;;;;0.20;0.20;;;;;;;16.82;99.78;100068.66;5066570;28;20032;-61
2023/08/10 05:11:00;;;;;;;0.20;0.20;;;;;;;17.77;100.00;100071.78;5066275;28;20076;-62
2023/08/10 05:13:25;;;;;;;0.20;0.20;;;;;;;18.56;94.90;100073.47;5066676;28;20040;-61
2023/08/10 05:15:51;;;;;;;0.20;0.20;;;;;;;19.17;96.47;100072.41;5066790;28;20021;-61
2023/08/10 05:18:20;;;;;;;0.20;0.20;;;;;;;19.93;97.69;100072.91;5066669;28;20092;-62
2023/08/10 05:20:45;;;;;;;0.20;0.20;;;;;;;20.62;98.01;100071.88;5066378;28;20031;-62
2023/08/10 05:23:11;;;;;;;0.20;0.20;;;;;;;21.27;93.06;100068.22;5066580;28;20021;-62
2023/08/10 05:25:36;;;;;;;6.82;1.65;;;;;;;21.78;87.47;100069.63;5066748;28;20371;-62
2023/08/10 05:28:02;;;;;;;0.10;0.10;;;;;;;22.20;84.69;100075.91;5066334;28;20426;-61
2023/08/10 05:30:27;;;;;;;0.98;0.28;;;;;;;22.50;88.05;100075.78;5066558;28;20029;-62
2023/08/10 05:32:53;;;;;;;0.45;0.30;;;;;;;22.87;77.83;100074.34;5066204;28;20381;-62
2023/08/10 05:35:18;;;;;;;0.57;0.32;;;;;;;22.63;76.93;100081.16;5066224;28;20024;-61
2023/08/10 05:37:44;;;;;;;0.45;0.40;;;;;;;22.88;77.43;100081.34;5066279;28;20041;-62
2023/08/10 05:40:11;;;;;;;3.25;0.60;;;;;;;23.26;76.74;100072.63;5065070;28;20028;-62
2023/08/10 05:42:38;;;;;;;3.70;0.70;;;;;;;23.47;75.82;100076.59;5066546;28;20027;-61
2023/08/10 05:45:06;;;;;;;4.03;0.68;;;;;;;23.58;69.92;100073.25;5066203;28;20392;-62
2023/08/10 05:47:35;;;;;;;1.85;0.50;;;;;;;23.00;68.76;100085.81;5066028;28;20045;-62
2023/08/10 05:50:02;;;;;;;0.22;0.22;;;;;;;22.72;68.50;100079.69;5066108;28;20166;-61
2023/08/10 05:52:28;;;;;;;2.15;0.40;;;;;;;22.83;69.89;100081.63;5065656;28;20043;-61
2023/08/10 05:54:53;;;;;;;1.15;0.30;;;;;;;23.38;69.63;100078.06;5066074;28;20017;-61
2023/08/10 05:57:19;;;;;;;1.40;0.60;;;;;;;23.83;67.24;100087.44;5065759;28;20029;-61
2023/08/10 05:59:45;;;;;;;3.35;0.50;;;;;;;24.01;59.67;100086.13;5066272;28;20055;-62
2023/08/10 06:02:10;;;;;;;2.38;0.30;;;;;;;23.80;57.47;100090.28;5065652;28;20052;-63
2023/08/10 06:04:36;;;;;;;0.52;0.20;;;;;;;23.88;60.49;100090.63;5064356;28;20024;-61
2023/08/10 06:07:01;;;;;;;1.23;0.55;;;;;;;24.04;58.97;100095.69;5065663;28;20020;-62
2023/08/10 06:09:26;;;;;;;0.60;0.38;;;;;;;24.00;57.93;100095.03;5065953;28;20031;-61
2023/08/10 06:11:52;;;;;;;0.60;0.30;;;;;;;24.14;58.08;100087.91;5065703;28;20052;-62
2023/08/10 06:14:17;;;;;;;2.47;0.40;;;;;;;24.30;59.72;100092.16;5065761;28;20021;-63
2023/08/10 06:16:43;;;;;;;1.25;0.40;;;;;;;24.61;59.88;100095.25;5065935;28;20029;-62
2023/08/10 06:19:09;;;;;;;3.28;0.40;;;;;;;24.08;55.77;100096.28;5065714;28;20032;-62
2023/08/10 06:21:34;;;;;;;0.20;0.20;;;;;;;23.24;56.21;100105.47;5065298;28;20040;-62
2023/08/10 06:24:00;;;;;;;0.30;0.30;;;;;;;22.22;53.19;100106.59;5065450;28;20044;-62
2023/08/10 06:26:25;;;;;;;2.85;0.68;;;;;;;21.32;55.26;100106.69;5065409;28;20040;-62
2023/08/10 06:28:51;;;;;;;1.15;0.50;;;;;;;20.81;57.45;100111.28;5064027;28;20046;-62
2023/08/10 06:31:16;;;;;;;2.80;0.70;;;;;;;20.18;58.59;100111.16;5065398;28;20025;-61
2023/08/10 06:33:42;;;;;;;2.17;0.85;;;;;;;19.62;58.43;100114.88;5065408;28;20025;-62
2023/08/10 06:36:10;;;;;;;1.15;0.45;;;;;;;19.27;59.93;100115.72;5063622;28;20036;-62
2023/08/10 06:38:36;;;;;;;2.67;0.70;;;;;;;18.90;60.15;100125.38;5064958;28;20056;-62
2023/08/10 06:41:01;;;;;;;1.50;0.60;;;;;;;18.57;60.98;100127.78;5065437;28;20020;-62
2023/08/10 06:43:28;;;;;;;1.10;0.45;;;;;;;18.20;62.43;100111.91;5065123;28;20482;-62
2023/08/10 06:45:53;;;;;;;4.80;0.85;;;;;;;17.91;62.49;100126.28;5065076;28;20021;-62
2023/08/10 06:48:19;;;;;;;1.42;0.52;;;;;;;17.78;62.40;100134.72;5065197;28;20051;-62
2023/08/10 06:50:44;;;;;;;3.88;0.60;;;;;;;17.64;62.91;100126.56;5065058;28;20024;-62
2023/08/10 06:53:11;;;;;;;1.00;0.43;;;;;;;17.61;64.17;100121.44;5065073;28;20025;-61
2023/08/10 06:55:38;;;;;;;0.55;0.50;;;;;;;17.75;63.98;100129.59;5065310;28;20063;-61
2023/08/10 06:58:04;;;;;;;2.38;0.77;;;;;;;17.82;64.48;100125.81;5064804;28;20032;-61
2023/08/10 07:00:30;;;;;;;1.25;0.50;;;;;;;18.15;64.79;100129.66;5065134;28;20025;-62
2023/08/10 07:02:55;;;;;;;1.20;0.60;;;;;;;18.85;65.66;100130.03;5064858;28;20025;-62
2023/08/10 07:05:21;;;;;;;4.22;1.63;;;;;;;19.57;64.69;100138.81;5065008;28;20021;-62
2023/08/10 07:07:47;;;;;;;4.93;0.50;;;;;;;20.45;65.16;100130.84;5064960;28;20029;-63
2023/08/10 07:10:14;;;;;;;18.20;0.88;;;;;;;21.41;60.56;100133.41;5064940;28;20029;-62
2023/08/10 07:12:39;;;;;;;3.08;0.50;;;;;;;21.36;58.24;100138.09;5065125;28;20028;-62
2023/08/10 07:15:07;;;;;;;1.38;0.77;;;;;;;20.85;59.59;100139.16;5065104;28;20029;-61
2023/08/10 07:17:33;;;;;;;5.35;0.65;;;;;;;20.30;60.42;100144.75;5065308;28;20068;-61
2023/08/10 07:19:59;;;;;;;12.02;0.80;;;;;;;19.86;61.29;100153.19;5064935;28;20029;-62
2023/08/10 07:22:24;;;;;;;1.42;0.63;;;;;;;19.61;62.33;100157.94;5064692;28;20028;-62
2023/08/10 07:24:49;;;;;;;0.60;0.50;;;;;;;19.28;62.00;100149.00;5064835;28;20025;-62
2023/08/10 07:27:15;;;;;;;2.55;0.47;;;;;;;19.01;62.32;100165.16;5064665;28;20021;-62
2023/08/10 07:29:40;;;;;;;0.35;0.35;;;;;;;18.82;63.27;100170.44;5064969;28;20063;-62
2023/08/10 07:32:07;;;;;;;4.28;0.65;;;;;;;19.04;62.87;100164.19;5064866;28;20088;-63
2023/08/10 07:34:32;;;;;;;2.63;0.45;;;;;;;19.34;61.41;100154.91;5063534;28;20085;-62
2023/08/10 07:36:58;;;;;;;1.27;0.50;;;;;;;19.71;62.25;100149.56;5064435;28;20055;-62
2023/08/10 07:39:23;;;;;;;3.60;0.70;;;;;;;20.04;62.47;100156.69;5064723;28;20072;-62
2023/08/10 07:41:49;;;;;;;3.75;0.55;;;;;;;20.42;61.63;100158.22;5064742;28;20470;-62
2023/08/10 07:44:14;;;;;;;4.80;1.00;;;;;;;20.75;61.36;100161.75;5064548;28;20113;-62
2023/08/10 07:46:39;;;;;;;1.38;0.55;;;;;;;20.48;59.86;100162.31;5064709;28;20059;-62
2023/08/10 07:49:05;;;;;;;1.60;0.65;;;;;;;20.05;60.46;100159.25;5065670;28;20051;-63
2023/08/10 07:51:31;;;;;;;1.55;0.70;;;;;;;19.73;60.34;100164.34;5068381;28;20025;-62
2023/08/10 07:53:57;;;;;;;1.40;0.50;;;;;;;19.28;60.69;100175.31;5068564;28;20094;-62
2023/08/10 07:56:22;;;;;;;1.30;0.73;;;;;;;19.07;61.01;100172.75;5068400;28;20413;-63
2023/08/10 07:58:47;;;;;;;0.50;0.30;;;;;;;18.79;61.17;100165.34;5068205;28;20028;-62
2023/08/10 08:01:14;;;;;;;2.17;0.60;;;;;;;18.89;61.39;100176.28;5068211;28;20088;-62
2023/08/10 08:03:39;;;;;;;0.30;0.30;;;;;;;18.85;59.64;100172.09;5068015;28;20029;-62
2023/08/10 08:06:05;;;;;;;11.60;0.73;;;;;;;18.68;59.22;100181.63;5067538;28;20055;-62
2023/08/10 08:08:30;;;;;;;0.98;0.50;;;;;;;18.57;60.62;100185.59;5067943;28;20025;-62
2023/08/10 08:10:56;;;;;;;0.25;0.20;;;;;;;18.61;60.00;100185.47;5068031;28;20021;-61
2023/08/10 08:13:21;;;;;;;0.30;0.30;;;;;;;18.40;59.93;100181.09;5067957;28;20069;-62
2023/08/10 08:15:47;;;;;;;1.63;0.32;;;;;;;18.32;59.16;100176.19;5068171;28;20036;-62
2023/08/10 08:18:40;;;;;;;1.80;0.77;;;;;;;18.69;60.75;100175.44;5068100;28;20056;-63
2023/08/10 08:21:06;;;;;;;0.50;0.50;;;;;;;19.75;59.89;100175.66;5067581;28;20023;-63
2023/08/10 08:23:31;;;;;;;1.70;0.55;;;;;;;20.09;58.49;100174.88;5067622;28;20021;-63
2023/08/10 08:25:57;;;;;;;3.13;0.40;;;;;;;20.10;58.30;100174.81;5067859;28;20503;-62
2023/08/10 08:28:23;;;;;;;2.75;0.43;;;;;;;20.08;58.91;100178.47;5067530;28;20035;-63
2023/08/10 08:30:51;;;;;;;5.82;0.82;;;;;;;20.80;58.62;100178.13;5067624;28;20044;-60
2023/08/10 08:33:18;;;;;;;3.13;1.17;;;;;;;21.27;57.05;100179.09;5067552;28;20476;-60
2023/08/10 08:35:45;;;;;;;0.90;0.32;;;;;;;21.22;57.22;100181.13;5067403;28;20094;-62
2023/08/10 08:38:13;;;;;;;1.02;0.80;;;;;;;21.25;58.22;100178.31;5067370;28;20049;-70
2023/08/10 08:40:39;;;;;;;1.08;0.30;;;;;;;21.86;56.76;100174.84;5067116;28;20029;-62
2023/08/10 08:43:04;;;;;;;0.63;0.50;;;;;;;22.50;57.06;100173.63;5067038;28;20025;-66
2023/08/10 08:45:30;;;;;;;3.40;0.52;;;;;;;23.30;53.90;100183.66;5066116;28;20366;-64
2023/08/10 08:47:57;;;;;;;1.38;0.43;;;;;;;23.91;53.27;100182.31;5066946;28;20021;-62
2023/08/10 08:50:23;;;;;;;0.73;0.45;;;;;;;24.11;53.05;100186.22;5067243;28;20032;-62
2023/08/10 08:52:50;;;;;;;1.23;0.50;;;;;;;23.46;51.79;100179.09;5067041;28;20021;-61
2023/08/10 08:55:15;;;;;;;0.55;0.40;;;;;;;22.96;52.12;100184.06;5067296;28;20025;-65
2023/08/10 08:57:41;;;;;;;0.20;0.20;;;;;;;23.29;53.06;100172.22;5067071;28;20084;-67
2023/08/10 09:00:08;;;;;;;0.98;0.40;;;;;;;24.14;50.06;100191.31;5065213;28;20032;-65
2023/08/10 09:02:33;;;;;;;8.57;0.65;;;;;;;24.79;49.76;100182.44;5065366;28;20025;-61
2023/08/10 09:04:59;;;;;;;1.30;0.40;;;;;;;24.85;47.91;100179.34;5066921;28;20080;-62
2023/08/10 09:07:31;;;;;;;6.32;0.70;;;;;;;24.03;49.04;100189.41;5066588;28;20048;-56
2023/08/10 09:09:57;;;;;;;2.75;0.35;;;;;;;23.60;50.82;100196.69;5067066;28;20021;-58
2023/08/10 09:12:38;;;;;;;0.75;0.40;;;;;;;23.15;50.20;100199.59;5066893;28;20118;-60
2023/08/10 09:15:12;;;;;;;0.90;0.55;;;;;;;22.60;51.42;100200.41;5066760;28;20033;-56
2023/08/10 09:17:48;;;;;;;3.25;0.63;;;;;;;21.89;51.71;100189.66;5066813;28;20032;-60
2023/08/10 09:20:25;;;;;;;0.90;0.30;;;;;;;21.70;50.37;100205.72;5066926;28;20029;-58
2023/08/10 09:22:57;;;;;;;0.30;0.30;;;;;;;21.22;51.13;100212.81;5066343;28;20105;-60
2023/08/10 09:25:23;;;;;;;0.25;0.25;;;;;;;20.53;50.97;100205.94;5066361;28;20031;-60
2023/08/10 09:27:49;;;;;;;0.30;0.30;;;;;;;20.59;52.80;100211.81;5066458;28;20485;-59
2023/08/10 09:30:16;;;;;;;0.20;0.20;;;;;;;20.70;52.09;100214.75;5066467;28;20077;-60
2023/08/10 09:32:42;;;;;;;0.77;0.22;;;;;;;21.22;52.45;100217.22;5066184;28;20020;-58
2023/08/10 09:35:14;;;;;;;3.10;0.45;;;;;;;21.40;51.77;100213.56;5065523;28;20029;-58
2023/08/10 09:37:40;;;;;;;0.63;0.38;;;;;;;22.35;51.97;100222.19;5064952;28;20123;-59
2023/08/10 09:40:10;;;;;;;1.38;0.20;;;;;;;23.75;50.43;100210.69;5065909;28;20051;-59
2023/08/10 09:42:36;;;;;;;4.18;0.50;;;;;;;24.74;45.97;100199.56;5066077;28;20104;-58
2023/08/10 09:45:08;;;;;;;0.50;0.30;;;;;;;25.29;45.98;100213.41;5066380;28;20056;-60
2023/08/10 09:47:38;;;;;;;0.32;0.28;;;;;;;24.90;43.95;100221.50;5066212;28;20025;-58
2023/08/10 09:50:07;;;;;;;1.30;0.30;;;;;;;23.87;42.77;100230.25;5066139;28;20021;-60
2023/08/10 09:52:36;;;;;;;0.55;0.30;;;;;;;23.15;45.30;100226.94;5065440;28;20021;-60
2023/08/10 09:55:03;;;;;;;0.50;0.30;;;;;;;23.17;46.63;100226.84;5066205;28;20094;-58
2023/08/10 09:57:28;;;;;;;1.40;0.40;;;;;;;24.09;45.64;100227.94;5065787;28;20051;-60
2023/08/10 09:59:54;;;;;;;0.40;0.30;;;;;;;25.15;43.96;100223.22;5066060;28;20025;-59
2023/08/10 10:02:21;;;;;;;1.25;0.40;;;;;;;25.54;43.25;100230.16;5066032;28;20059;-58
2023/08/10 10:04:47;;;;;;;2.33;0.57;;;;;;;26.48;43.79;100237.31;5065639;28;20028;-60
2023/08/10 10:07:14;;;;;;;0.20;0.20;;;;;;;26.83;39.39;100232.78;5065673;28;20025;-58
2023/08/10 10:09:43;;;;;;;0.30;0.20;;;;;;;27.02;40.78;100234.00;5065903;28;20028;-59
2023/08/10 10:12:13;;;;;;;4.97;0.98;;;;;;;27.38;38.33;100234.59;5063827;28;20029;-58
2023/08/10 10:14:43;;;;;;;1.55;0.35;;;;;;;26.33;39.70;100244.66;5065517;28;20031;-59
2023/08/10 10:17:13;;;;;;;2.13;0.50;;;;;;;24.93;40.49;100246.06;5065847;28;20032;-60
2023/08/10 10:19:40;;;;;;;1.30;0.30;;;;;;;23.70;42.48;100264.97;5065676;28;20051;-59
2023/08/10 10:22:06;;;;;;;0.65;0.30;;;;;;;22.78;43.24;100264.53;5063793;28;20032;-59
2023/08/10 10:24:32;;;;;;;4.00;0.40;;;;;;;22.04;44.87;100257.44;5065461;28;20448;-59
2023/08/10 10:27:08;;;;;;;0.30;0.20;;;;;;;21.87;44.84;100274.31;5065422;28;20059;-59
2023/08/10 10:29:49;;;;;;;1.75;0.32;;;;;;;21.46;44.77;100277.50;5065598;28;20100;-59
2023/08/10 10:32:19;;;;;;;0.77;0.35;;;;;;;21.07;45.83;100279.66;5064776;28;20568;-59
2023/08/10 10:34:45;;;;;;;1.17;0.20;;;;;;;20.75;46.92;100283.06;5065387;28;20100;-59
2023/08/10 10:37:13;;;;;;;0.28;0.28;;;;;;;20.48;48.19;100280.97;5064818;28;20036;-60
2023/08/10 10:39:43;;;;;;;1.65;0.40;;;;;;;21.25;48.24;100272.50;5065482;28;20025;-59
2023/08/10 10:42:15;;;;;;;1.75;0.20;;;;;;;21.44;46.93;100280.22;5065296;28;20021;-59
2023/08/10 10:45:07;;;;;;;1.75;0.40;;;;;;;21.36;47.56;100282.47;5065210;28;20473;-60
2023/08/10 10:47:38;;;;;;;0.20;0.20;;;;;;;21.12;48.41;100293.47;5065220;28;20040;-60
2023/08/10 10:50:15;;;;;;;0.82;0.22;;;;;;;21.49;45.45;100288.75;5065066;28;20051;-60
2023/08/10 10:52:40;;;;;;;1.65;0.20;;;;;;;21.03;46.16;100287.75;5064652;28;20128;-60
2023/08/10 10:55:09;;;;;;;0.25;0.22;;;;;;;20.95;48.10;100289.06;5064430;28;20033;-60
2023/08/10 10:57:36;;;;;;;1.00;0.32;;;;;;;21.53;47.09;100285.00;5065185;28;20062;-59
2023/08/10 11:00:03;;;;;;;4.28;0.63;;;;;;;21.25;47.16;100298.88;5065046;28;20052;-59
2023/08/10 11:02:30;;;;;;;1.33;0.32;;;;;;;20.83;46.15;100298.50;5064908;28;20116;-59
2023/08/10 11:04:56;;;;;;;2.13;0.35;;;;;;;21.07;46.93;100304.25;5065050;28;20025;-59
2023/08/10 11:07:21;;;;;;;0.20;0.20;;;;;;;21.39;46.07;100308.72;5064208;28;20420;-59
2023/08/10 11:09:46;;;;;;;0.35;0.32;;;;;;;21.32;45.83;100307.31;5064279;28;20123;-59
2023/08/10 11:12:12;;;;;;;0.20;0.20;;;;;;;20.89;44.67;100306.06;5064891;28;20067;-59
2023/08/10 11:14:42;;;;;;;1.08;0.28;;;;;;;20.48;45.98;100313.44;5064626;28;20152;-62
2023/08/10 11:17:08;;;;;;;1.35;0.47;;;;;;;20.53;46.77;100321.97;5064834;28;20059;-59
2023/08/10 11:19:34;;;;;;;0.52;0.38;;;;;;;20.44;47.65;100333.00;5065102;28;20040;-61
2023/08/10 11:22:00;;;;;;;1.58;0.40;;;;;;;20.58;47.72;100321.72;5064414;28;20021;-61
2023/08/10 11:24:28;;;;;;;5.45;0.40;;;;;;;20.53;47.46;100321.97;5067925;28;20032;-60